createdAt,value
2022-09-26T03:01:59.823Z,2.78
2022-09-26T03:04:36.570Z,2.78
2022-09-26T03:07:07.986Z,3.10
2022-09-26T03:09:35.077Z,2.92
2022-09-26T03:12:05.006Z,2.30
2022-09-26T03:14:34.095Z,2.30
2022-09-26T03:17:03.113Z,2.20
2022-09-26T03:19:39.823Z,3.22
2022-09-26T03:22:06.266Z,2.72
2022-09-26T03:24:36.118Z,2.35
2022-09-26T03:27:05.044Z,2.95
2022-09-26T03:29:34.651Z,3.08
2022-09-26T03:32:01.452Z,2.60
2022-09-26T03:34:28.026Z,3.40
2022-09-26T03:36:55.108Z,2.83
2022-09-26T03:39:21.599Z,2.50
2022-09-26T03:41:48.557Z,2.40
2022-09-26T03:44:15.784Z,3.28
2022-09-26T03:46:44.876Z,2.70
2022-09-26T03:49:12.162Z,3.50
2022-09-26T03:51:38.858Z,2.42
2022-09-26T03:54:05.454Z,2.60
2022-09-26T03:56:31.931Z,2.60
2022-09-26T03:58:58.370Z,2.72
2022-09-26T04:01:24.921Z,3.10
2022-09-26T04:03:51.550Z,2.88
2022-09-26T04:06:20.080Z,2.72
2022-09-26T04:08:49.807Z,3.05
2022-09-26T04:11:19.350Z,2.65
2022-09-26T04:13:51.719Z,3.28
2022-09-26T04:16:20.185Z,3.42
2022-09-26T04:18:47.091Z,2.85
2022-09-26T04:21:14.466Z,2.85
2022-09-26T04:23:42.452Z,2.60
2022-09-26T04:26:18.661Z,3.15
2022-09-26T04:28:49.441Z,3.65
2022-09-26T04:31:15.925Z,8.07
2022-09-26T04:33:42.795Z,6.82
2022-09-26T04:36:11.547Z,4.93
2022-09-26T04:38:39.205Z,2.78
2022-09-26T04:41:11.369Z,4.57
2022-09-26T04:43:38.511Z,4.68
2022-09-26T04:46:21.250Z,3.63
2022-09-26T04:48:50.432Z,3.80
2022-09-26T04:51:18.391Z,4.32
2022-09-26T04:53:45.208Z,4.45
2022-09-26T04:56:13.950Z,4.63
2022-09-26T04:58:42.087Z,4.13
2022-09-26T05:01:10.907Z,4.95
2022-09-26T05:03:37.841Z,4.13
2022-09-26T05:06:09.032Z,4.22
2022-09-26T05:08:36.388Z,4.93
2022-09-26T05:11:02.891Z,4.32
2022-09-26T05:13:30.070Z,4.30
2022-09-26T05:15:59.796Z,4.70
2022-09-26T05:18:26.472Z,4.63
2022-09-26T05:20:54.326Z,4.03
2022-09-26T05:23:44.791Z,4.78
2022-09-26T05:26:27.171Z,5.37
2022-09-26T05:31:26.171Z,4.32
2022-09-26T05:33:52.968Z,5.07
2022-09-26T05:36:19.839Z,4.82
2022-09-26T05:38:46.447Z,5.40
2022-09-26T05:41:14.057Z,4.70
2022-09-26T05:43:40.873Z,4.60
2022-09-26T05:46:09.566Z,5.63
2022-09-26T05:48:37.612Z,4.55
2022-09-26T05:51:04.264Z,5.38
2022-09-26T05:53:34.160Z,5.00
2022-09-26T05:56:01.095Z,4.50
2022-09-26T05:58:32.943Z,4.75
2022-09-26T06:01:06.640Z,5.10
2022-09-26T06:03:36.773Z,4.68
2022-09-26T06:06:04.941Z,4.28
2022-09-26T06:08:32.118Z,8.40
2022-09-26T06:11:00.678Z,10.70
2022-09-26T06:13:27.108Z,4.90
2022-09-26T06:15:54.678Z,3.92
2022-09-26T06:18:21.194Z,5.20
2022-09-26T06:20:47.638Z,5.57
2022-09-26T06:23:14.112Z,4.78
2022-09-26T06:25:40.544Z,4.85
2022-09-26T06:28:06.979Z,4.45
2022-09-26T06:30:33.932Z,4.47
2022-09-26T06:33:00.472Z,4.85
2022-09-26T06:35:27.642Z,4.80
2022-09-26T06:37:54.047Z,4.47
2022-09-26T06:40:20.618Z,4.47
2022-09-26T06:42:47.245Z,4.30
2022-09-26T06:45:15.117Z,4.43
2022-09-26T06:47:41.579Z,4.45
2022-09-26T06:50:08.778Z,4.28
2022-09-26T06:52:35.339Z,4.63
2022-09-26T06:55:03.528Z,4.32
2022-09-26T06:57:37.572Z,5.05
2022-09-26T07:00:04.873Z,4.43
2022-09-26T07:02:31.340Z,4.70
2022-09-26T07:04:57.922Z,4.72
2022-09-26T07:07:24.366Z,4.57
2022-09-26T07:09:51.399Z,3.92
2022-09-26T07:12:17.873Z,3.80
2022-09-26T07:14:44.430Z,3.72
2022-09-26T07:17:15.646Z,4.18
2022-09-26T07:19:42.577Z,3.55
2022-09-26T07:22:09.553Z,3.70
2022-09-26T07:24:36.251Z,3.20
2022-09-26T07:27:03.209Z,3.20
2022-09-26T07:29:29.645Z,3.38
2022-09-26T07:31:56.215Z,2.90
2022-09-26T07:34:25.893Z,3.10
2022-09-26T07:36:52.928Z,2.92
2022-09-26T07:39:19.382Z,3.17
2022-09-26T07:41:46.684Z,2.67
2022-09-26T07:47:19.713Z,2.60
2022-09-26T07:50:04.709Z,2.45
2022-09-26T07:52:31.307Z,2.92
2022-09-26T07:54:57.707Z,2.50
2022-09-26T07:57:24.782Z,2.42
2022-09-26T07:59:52.449Z,2.33
2022-09-26T08:02:24.702Z,2.05
2022-09-26T08:04:58.857Z,2.17
2022-09-26T08:07:26.783Z,2.17
2022-09-26T08:09:54.073Z,2.22
2022-09-26T08:12:20.594Z,2.63
2022-09-26T08:14:51.257Z,2.95
2022-09-26T08:17:17.929Z,2.40
2022-09-26T08:19:44.485Z,2.35
2022-09-26T08:22:11.845Z,2.58
2022-09-26T08:24:43.679Z,2.33
2022-09-26T08:27:10.241Z,2.25
2022-09-26T08:29:36.687Z,2.20
2022-09-26T08:32:04.336Z,2.63
2022-09-26T08:34:32.105Z,3.30
2022-09-26T08:36:58.600Z,2.70
2022-09-26T08:39:25.883Z,2.83
2022-09-26T08:42:23.958Z,2.40
2022-09-26T08:45:30.297Z,2.22
2022-09-26T08:48:13.820Z,2.90
2022-09-26T08:50:53.790Z,2.35
2022-09-26T08:53:27.331Z,2.97
2022-09-26T08:55:57.101Z,2.83
2022-09-26T08:58:45.619Z,2.75
2022-09-26T09:01:23.497Z,3.15
2022-09-26T09:03:56.148Z,2.95
2022-09-26T09:06:26.791Z,1.60
2022-09-26T09:08:56.311Z,1.73
2022-09-26T09:11:31.450Z,1.85
2022-09-26T09:14:08.379Z,2.25
2022-09-26T09:16:44.850Z,1.13
2022-09-26T09:19:26.168Z,1.17
2022-09-26T09:22:13.068Z,0.90
2022-09-26T09:25:13.906Z,1.17
2022-09-26T09:27:53.266Z,1.25
2022-09-26T09:30:41.966Z,1.27
2022-09-26T09:33:27.137Z,1.42
2022-09-26T09:36:00.922Z,1.30
2022-09-26T09:38:31.533Z,1.00
2022-09-26T09:41:27.946Z,0.90
2022-09-26T09:43:59.037Z,1.00
2022-09-26T09:46:29.246Z,1.23
2022-09-26T09:49:23.174Z,1.40
2022-09-26T09:52:07.941Z,1.10
2022-09-26T09:54:42.627Z,1.20
2022-09-26T09:57:37.007Z,1.30
2022-09-26T10:00:09.609Z,1.50
2022-09-26T10:02:40.286Z,1.20
2022-09-26T10:05:44.247Z,1.20
2022-09-26T10:08:31.682Z,1.38
2022-09-26T10:11:11.561Z,1.80
2022-09-26T10:13:42.168Z,1.20
2022-09-26T10:16:11.771Z,1.10
2022-09-26T10:19:03.317Z,1.90
2022-09-26T10:21:39.260Z,1.15
2022-09-26T10:24:07.258Z,1.58
2022-09-26T10:26:36.004Z,1.30
2022-09-26T10:29:08.409Z,1.40
2022-09-26T10:31:42.379Z,1.58
2022-09-26T10:34:27.570Z,1.95
2022-09-26T10:36:55.716Z,1.40
2022-09-26T10:39:42.843Z,1.30
2022-09-26T10:42:15.019Z,1.25
2022-09-26T10:44:43.034Z,1.13
2022-09-26T10:47:15.931Z,1.65
2022-09-26T10:49:57.228Z,1.17
2022-09-26T10:52:30.287Z,1.42
2022-09-26T10:55:21.957Z,1.73
2022-09-26T10:57:54.974Z,1.30
2022-09-26T11:00:37.286Z,0.90
2022-09-26T11:03:07.108Z,0.90
2022-09-26T11:06:02.444Z,2.08
2022-09-26T11:08:34.798Z,2.00
2022-09-26T11:11:04.200Z,1.10
2022-09-26T11:13:45.080Z,1.40
2022-09-26T11:16:14.779Z,1.03
2022-09-26T11:18:41.907Z,1.10
2022-09-26T11:21:35.227Z,1.20
2022-09-26T11:24:22.918Z,1.00
2022-09-26T11:27:31.481Z,1.25
2022-09-26T11:30:13.455Z,1.88
2022-09-26T11:32:44.002Z,2.10
2022-09-26T11:35:16.548Z,2.00
2022-09-26T11:37:53.466Z,1.73
2022-09-26T11:40:30.407Z,1.80
2022-09-26T11:42:56.970Z,1.60
2022-09-26T11:45:46.562Z,1.52
2022-09-26T11:48:40.161Z,1.75
2022-09-26T11:51:47.095Z,2.28
2022-09-26T11:54:31.827Z,1.50
2022-09-26T11:57:14.564Z,1.38
2022-09-26T12:00:07.748Z,1.50
2022-09-26T12:03:05.551Z,1.25
2022-09-26T12:06:07.776Z,1.48
2022-09-26T12:08:49.418Z,1.40
2022-09-26T12:11:34.238Z,1.58
2022-09-26T12:14:39.422Z,1.75
2022-09-26T12:17:10.283Z,1.88
2022-09-26T12:20:04.155Z,3.47
2022-09-26T12:23:10.208Z,3.78
2022-09-26T12:25:47.086Z,2.38
2022-09-26T12:28:22.339Z,1.98
2022-09-26T12:30:54.487Z,3.15
2022-09-26T12:33:45.274Z,1.70
2022-09-26T12:36:24.371Z,1.10
2022-09-26T12:38:56.690Z,1.77
2022-09-26T12:41:48.206Z,1.90
2022-09-26T12:44:22.139Z,1.05
2022-09-26T12:47:19.405Z,1.50
2022-09-26T12:50:07.590Z,1.67
2022-09-26T12:53:10.095Z,1.52
2022-09-26T12:55:49.067Z,1.40
2022-09-26T12:58:37.072Z,1.27
2022-09-26T13:01:25.675Z,1.48
2022-09-26T13:04:09.164Z,1.38
2022-09-26T13:07:23.731Z,1.15
2022-09-26T13:10:02.122Z,1.50
2022-09-26T13:12:47.522Z,1.67
2022-09-26T13:15:35.422Z,1.50
2022-09-26T13:18:12.402Z,1.63
2022-09-26T13:20:43.677Z,1.35
2022-09-26T13:23:37.716Z,1.70
2022-09-26T13:26:26.015Z,1.35
2022-09-26T13:29:18.312Z,1.30
2022-09-26T13:32:04.210Z,1.52
2022-09-26T13:34:39.568Z,1.40
2022-09-26T13:37:28.627Z,1.38
2022-09-26T13:40:34.249Z,1.30
2022-09-26T13:43:24.659Z,1.73
2022-09-26T13:46:16.316Z,1.05
2022-09-26T13:48:54.748Z,1.40
2022-09-26T13:51:26.239Z,1.58
2022-09-26T13:54:16.870Z,1.38
2022-09-26T13:56:50.403Z,1.80
2022-09-26T13:59:19.496Z,1.27
2022-09-26T14:02:19.457Z,1.85
2022-09-26T14:04:47.981Z,1.63
2022-09-26T14:07:35.408Z,1.38
2022-09-26T14:10:05.073Z,0.90
2022-09-26T14:12:50.397Z,1.60
2022-09-26T14:15:19.243Z,1.15
2022-09-26T14:17:45.765Z,1.58
2022-09-26T14:20:38.644Z,1.17
2022-09-26T14:23:05.231Z,1.73
2022-09-26T14:25:47.704Z,1.15
2022-09-26T14:28:21.652Z,1.00
2022-09-26T14:31:11.237Z,1.10
2022-09-26T14:33:39.143Z,1.33
2022-09-26T14:36:38.144Z,1.13
2022-09-26T14:39:05.681Z,1.10
2022-09-26T14:41:34.985Z,1.83
2022-09-26T14:44:04.422Z,1.27
2022-09-26T14:46:34.207Z,1.60
2022-09-26T14:49:07.906Z,0.98
2022-09-26T14:51:39.306Z,1.25
2022-09-26T14:54:26.245Z,1.38
2022-09-26T14:57:02.903Z,1.40
2022-09-26T14:59:42.643Z,1.00
2022-09-26T15:02:28.832Z,1.13
2022-09-26T15:05:06.771Z,1.25
2022-09-26T15:07:41.059Z,1.20
2022-09-26T15:10:26.002Z,1.48
2022-09-26T15:12:56.563Z,1.08
2022-09-26T15:15:47.771Z,1.70
2022-09-26T15:18:32.063Z,1.60
2022-09-26T15:21:28.737Z,1.52
2022-09-26T15:23:57.431Z,1.70
2022-09-26T15:26:31.942Z,1.10
2022-09-26T15:29:00.103Z,1.10
2022-09-26T15:31:43.056Z,0.98
2022-09-26T15:34:24.111Z,1.10
2022-09-26T15:36:55.933Z,1.15
2022-09-26T15:39:31.688Z,1.10
2022-09-26T15:42:24.387Z,1.80
2022-09-26T15:44:59.439Z,1.40
2022-09-26T15:47:30.420Z,1.30
2022-09-26T15:50:12.513Z,1.05
2022-09-26T15:52:51.456Z,0.88
2022-09-26T15:55:25.412Z,1.35
2022-09-26T15:57:59.099Z,1.48
2022-09-26T16:00:26.193Z,1.27
2022-09-26T16:02:53.755Z,1.40
2022-09-26T16:05:21.756Z,3.92
2022-09-26T16:07:52.135Z,1.30
2022-09-26T16:10:28.365Z,1.40
2022-09-26T16:12:57.118Z,1.55
2022-09-26T16:15:31.387Z,1.40
2022-09-26T16:17:58.862Z,1.55
2022-09-26T16:20:29.407Z,1.52
2022-09-26T16:23:05.207Z,1.77
2022-09-26T16:25:51.110Z,1.83
2022-09-26T16:28:18.076Z,1.38
2022-09-26T16:30:53.097Z,1.38
2022-09-26T16:33:25.170Z,1.60
2022-09-26T16:35:51.901Z,1.30
2022-09-26T16:38:29.803Z,1.40
2022-09-26T16:41:03.283Z,1.40
2022-09-26T16:43:34.308Z,1.60
2022-09-26T16:46:19.095Z,1.90
2022-09-26T16:48:51.511Z,2.22
2022-09-26T16:51:27.144Z,2.03
2022-09-26T16:54:02.712Z,1.92
2022-09-26T16:56:29.662Z,1.83
2022-09-26T16:59:02.442Z,2.40
2022-09-26T17:01:48.184Z,1.90
2022-09-26T17:04:20.826Z,1.52
2022-09-26T17:06:47.835Z,2.53
2022-09-26T17:09:22.931Z,2.30
2022-09-26T17:11:53.125Z,2.03
2022-09-26T17:14:23.396Z,1.70
2022-09-26T17:16:55.089Z,2.13
2022-09-26T17:21:49.858Z,2.67
2022-09-26T17:24:21.229Z,2.90
2022-09-26T17:26:57.207Z,2.92
2022-09-26T17:29:30.332Z,2.30
2022-09-26T17:31:58.192Z,1.75
2022-09-26T17:34:27.117Z,2.20
2022-09-26T17:36:56.218Z,2.28
2022-09-26T17:39:26.159Z,1.85
2022-09-26T17:41:54.016Z,2.70
2022-09-26T17:44:21.778Z,2.58
2022-09-26T17:46:51.278Z,2.10
2022-09-26T17:49:32.497Z,2.47
2022-09-26T17:52:01.817Z,1.80
2022-09-26T17:54:40.732Z,2.60
2022-09-26T17:57:12.524Z,2.28
2022-09-26T17:59:41.375Z,2.60
2022-09-26T18:02:30.380Z,2.20
2022-09-26T18:05:00.985Z,2.53
2022-09-26T18:07:37.533Z,2.00
2022-09-26T18:10:07.300Z,2.00
2022-09-26T18:12:34.835Z,2.03
2022-09-26T18:15:03.777Z,2.58
2022-09-26T18:17:30.686Z,2.90
2022-09-26T18:19:57.142Z,2.83
2022-09-26T18:22:31.085Z,2.67
2022-09-26T18:25:06.421Z,5.22
2022-09-26T18:27:40.484Z,2.80
2022-09-26T18:30:11.705Z,2.50
2022-09-26T18:32:41.582Z,1.83
2022-09-26T18:35:19.745Z,1.88
2022-09-26T18:37:46.231Z,1.80
2022-09-26T18:40:16.650Z,1.90
2022-09-26T18:42:44.513Z,1.90
2022-09-26T18:45:14.430Z,2.42
2022-09-26T18:47:45.336Z,1.83
2022-09-26T18:50:37.760Z,2.10
2022-09-26T18:53:11.042Z,1.85
2022-09-26T18:55:56.334Z,1.63
2022-09-26T18:58:27.117Z,1.48
2022-09-26T19:01:11.523Z,1.90
2022-09-26T19:03:40.029Z,1.42
2022-09-26T19:06:40.632Z,2.10
2022-09-26T19:09:18.870Z,2.17
2022-09-26T19:11:46.394Z,2.83
2022-09-26T19:14:18.874Z,3.92
2022-09-26T19:16:47.149Z,3.15
2022-09-26T19:19:13.890Z,4.28
2022-09-26T19:21:49.794Z,10.35
2022-09-26T19:24:40.767Z,3.50
2022-09-26T19:27:21.273Z,3.20
2022-09-26T19:30:13.360Z,3.15
2022-09-26T19:32:43.263Z,5.35
2022-09-26T19:35:32.336Z,4.20
2022-09-26T19:38:00.058Z,4.15
2022-09-26T19:40:27.692Z,4.00
2022-09-26T19:42:55.078Z,4.20
2022-09-26T19:45:22.154Z,2.88
2022-09-26T19:47:52.192Z,2.38
2022-09-26T19:50:23.983Z,2.13
2022-09-26T19:52:52.560Z,1.65
2022-09-26T19:55:24.964Z,1.88
2022-09-26T19:57:52.989Z,2.38
2022-09-26T20:00:20.122Z,2.50
